sensor_id;sensor_type;location;lat;lon;timestamp;temperature;humidity
12408;DHT22;6268;48.188;17.134;2022-11-13T00:01:23;8.40;99.90
12408;DHT22;6268;48.188;17.134;2022-11-13T00:03:54;8.50;99.90
12408;DHT22;6268;48.188;17.134;2022-11-13T00:06:25;8.60;99.90
12408;DHT22;6268;48.188;17.134;2022-11-13T00:08:54;8.80;99.90
12408;DHT22;6268;48.188;17.134;2022-11-13T00:11:22;8.90;99.90
12408;DHT22;6268;48.188;17.134;2022-11-13T00:13:51;9.00;99.90
12408;DHT22;6268;48.188;17.134;2022-11-13T00:16:20;8.90;99.90
12408;DHT22;6268;48.188;17.134;2022-11-13T00:18:50;9.00;99.90
12408;DHT22;6268;48.188;17.134;2022-11-13T00:21:21;9.00;99.90
12408;DHT22;6268;48.188;17.134;2022-11-13T00:23:51;9.00;99.90
12408;DHT22;6268;48.188;17.134;2022-11-13T00:26:23;9.00;99.90
12408;DHT22;6268;48.188;17.134;2022-11-13T00:28:55;9.00;99.90
12408;DHT22;6268;48.188;17.134;2022-11-13T00:31:25;9.00;99.90
12408;DHT22;6268;48.188;17.134;2022-11-13T00:33:56;9.00;99.90
12408;DHT22;6268;48.188;17.134;2022-11-13T00:36:45;9.00;99.90
12408;DHT22;6268;48.188;17.134;2022-11-13T00:39:14;9.00;99.90
12408;DHT22;6268;48.188;17.134;2022-11-13T00:41:42;9.00;99.90
12408;DHT22;6268;48.188;17.134;2022-11-13T00:44:11;9.00;99.90
12408;DHT22;6268;48.188;17.134;2022-11-13T00:46:40;9.00;99.90
12408;DHT22;6268;48.188;17.134;2022-11-13T00:49:10;8.90;99.90
12408;DHT22;6268;48.188;17.134;2022-11-13T00:51:39;8.80;99.90
12408;DHT22;6268;48.188;17.134;2022-11-13T00:54:08;8.80;99.90
12408;DHT22;6268;48.188;17.134;2022-11-13T00:56:37;8.80;99.90
12408;DHT22;6268;48.188;17.134;2022-11-13T00:59:05;8.70;99.90
12408;DHT22;6268;48.188;17.134;2022-11-13T01:01:34;8.70;99.90
12408;DHT22;6268;48.188;17.134;2022-11-13T01:04:03;8.70;99.90
12408;DHT22;6268;48.188;17.134;2022-11-13T01:06:33;8.80;99.90
12408;DHT22;6268;48.188;17.134;2022-11-13T01:09:02;8.90;99.90
12408;DHT22;6268;48.188;17.134;2022-11-13T01:11:30;9.00;99.90
12408;DHT22;6268;48.188;17.134;2022-11-13T01:13:59;9.00;99.90
12408;DHT22;6268;48.188;17.134;2022-11-13T01:16:28;9.00;99.90
12408;DHT22;6268;48.188;17.134;2022-11-13T01:18:56;9.00;99.90
12408;DHT22;6268;48.188;17.134;2022-11-13T01:21:26;9.00;99.90
12408;DHT22;6268;48.188;17.134;2022-11-13T01:23:57;8.80;99.90
12408;DHT22;6268;48.188;17.134;2022-11-13T01:26:27;8.80;99.90
12408;DHT22;6268;48.188;17.134;2022-11-13T01:28:58;8.80;99.90
12408;DHT22;6268;48.188;17.134;2022-11-13T01:31:29;8.80;99.90
12408;DHT22;6268;48.188;17.134;2022-11-13T01:33:58;8.80;99.90
12408;DHT22;6268;48.188;17.134;2022-11-13T01:36:28;8.90;99.90
12408;DHT22;6268;48.188;17.134;2022-11-13T01:38:58;8.90;99.90
12408;DHT22;6268;48.188;17.134;2022-11-13T01:41:28;8.90;99.90
12408;DHT22;6268;48.188;17.134;2022-11-13T01:43:59;8.90;99.90
12408;DHT22;6268;48.188;17.134;2022-11-13T01:46:30;8.90;99.90
12408;DHT22;6268;48.188;17.134;2022-11-13T01:49:03;9.00;99.90
12408;DHT22;6268;48.188;17.134;2022-11-13T01:51:56;9.10;99.90
12408;DHT22;6268;48.188;17.134;2022-11-13T01:54:30;9.10;99.90
12408;DHT22;6268;48.188;17.134;2022-11-13T01:57:03;9.10;99.90
12408;DHT22;6268;48.188;17.134;2022-11-13T01:59:34;9.00;99.90
12408;DHT22;6268;48.188;17.134;2022-11-13T02:02:06;8.90;99.90
12408;DHT22;6268;48.188;17.134;2022-11-13T02:04:35;9.00;99.90
12408;DHT22;6268;48.188;17.134;2022-11-13T02:07:06;9.10;99.90
12408;DHT22;6268;48.188;17.134;2022-11-13T02:09:40;9.20;99.90
12408;DHT22;6268;48.188;17.134;2022-11-13T02:12:11;9.10;99.90
12408;DHT22;6268;48.188;17.134;2022-11-13T02:14:43;9.00;99.90
12408;DHT22;6268;48.188;17.134;2022-11-13T02:17:18;9.00;99.90
12408;DHT22;6268;48.188;17.134;2022-11-13T02:19:53;9.00;99.90
12408;DHT22;6268;48.188;17.134;2022-11-13T02:22:30;8.80;99.90
12408;DHT22;6268;48.188;17.134;2022-11-13T02:25:08;8.80;99.90
12408;DHT22;6268;48.188;17.134;2022-11-13T02:27:41;8.80;99.90
12408;DHT22;6268;48.188;17.134;2022-11-13T02:30:14;8.80;99.90
12408;DHT22;6268;48.188;17.134;2022-11-13T02:32:54;8.70;99.90
12408;DHT22;6268;48.188;17.134;2022-11-13T02:35:25;8.70;99.90
12408;DHT22;6268;48.188;17.134;2022-11-13T02:37:58;8.60;99.90
12408;DHT22;6268;48.188;17.134;2022-11-13T02:40:30;8.60;99.90
12408;DHT22;6268;48.188;17.134;2022-11-13T02:43:00;8.60;99.90
12408;DHT22;6268;48.188;17.134;2022-11-13T02:45:28;8.60;99.90
12408;DHT22;6268;48.188;17.134;2022-11-13T02:47:59;8.50;99.90
12408;DHT22;6268;48.188;17.134;2022-11-13T02:50:28;8.40;99.90
12408;DHT22;6268;48.188;17.134;2022-11-13T02:52:56;8.40;99.90
12408;DHT22;6268;48.188;17.134;2022-11-13T02:55:25;8.30;99.90
12408;DHT22;6268;48.188;17.134;2022-11-13T02:57:55;8.30;99.90
12408;DHT22;6268;48.188;17.134;2022-11-13T03:00:24;8.20;99.90
12408;DHT22;6268;48.188;17.134;2022-11-13T03:02:52;8.30;99.90
12408;DHT22;6268;48.188;17.134;2022-11-13T03:05:22;8.20;99.90
12408;DHT22;6268;48.188;17.134;2022-11-13T03:07:51;8.10;99.90
12408;DHT22;6268;48.188;17.134;2022-11-13T03:10:20;8.00;99.90
12408;DHT22;6268;48.188;17.134;2022-11-13T03:12:48;8.00;99.90
12408;DHT22;6268;48.188;17.134;2022-11-13T03:15:18;8.10;99.90
12408;DHT22;6268;48.188;17.134;2022-11-13T03:17:47;8.10;99.90
12408;DHT22;6268;48.188;17.134;2022-11-13T03:20:16;8.20;99.90
12408;DHT22;6268;48.188;17.134;2022-11-13T03:22:44;8.30;99.90
12408;DHT22;6268;48.188;17.134;2022-11-13T03:25:13;8.30;99.90
12408;DHT22;6268;48.188;17.134;2022-11-13T03:27:42;8.30;99.90
12408;DHT22;6268;48.188;17.134;2022-11-13T03:30:11;8.30;99.90
12408;DHT22;6268;48.188;17.134;2022-11-13T03:32:41;8.30;99.90
12408;DHT22;6268;48.188;17.134;2022-11-13T03:35:10;8.20;99.90
12408;DHT22;6268;48.188;17.134;2022-11-13T03:37:38;8.20;99.90
12408;DHT22;6268;48.188;17.134;2022-11-13T03:40:08;8.10;99.90
12408;DHT22;6268;48.188;17.134;2022-11-13T03:42:37;8.00;99.90
12408;DHT22;6268;48.188;17.134;2022-11-13T03:45:06;7.90;99.90
12408;DHT22;6268;48.188;17.134;2022-11-13T03:47:35;8.00;99.90
12408;DHT22;6268;48.188;17.134;2022-11-13T03:50:05;8.20;99.90
12408;DHT22;6268;48.188;17.134;2022-11-13T03:52:34;8.30;99.90
12408;DHT22;6268;48.188;17.134;2022-11-13T03:55:03;8.30;99.90
12408;DHT22;6268;48.188;17.134;2022-11-13T03:57:32;8.20;99.90
12408;DHT22;6268;48.188;17.134;2022-11-13T04:00:01;8.10;99.90
12408;DHT22;6268;48.188;17.134;2022-11-13T04:02:30;8.20;99.90
12408;DHT22;6268;48.188;17.134;2022-11-13T04:04:59;8.20;99.90
12408;DHT22;6268;48.188;17.134;2022-11-13T04:07:29;8.20;99.90
12408;DHT22;6268;48.188;17.134;2022-11-13T04:09:58;8.10;99.90
12408;DHT22;6268;48.188;17.134;2022-11-13T04:12:26;8.10;99.90
12408;DHT22;6268;48.188;17.134;2022-11-13T04:14:55;8.10;99.90
12408;DHT22;6268;48.188;17.134;2022-11-13T04:17:23;8.10;99.90
12408;DHT22;6268;48.188;17.134;2022-11-13T04:19:52;8.20;99.90
12408;DHT22;6268;48.188;17.134;2022-11-13T04:22:21;8.10;99.90
12408;DHT22;6268;48.188;17.134;2022-11-13T04:24:51;7.90;99.90
12408;DHT22;6268;48.188;17.134;2022-11-13T04:27:19;8.00;99.90
12408;DHT22;6268;48.188;17.134;2022-11-13T04:29:48;8.10;99.90
12408;DHT22;6268;48.188;17.134;2022-11-13T04:32:16;8.20;99.90
12408;DHT22;6268;48.188;17.134;2022-11-13T04:34:45;8.10;99.90
12408;DHT22;6268;48.188;17.134;2022-11-13T04:37:14;8.10;99.90
12408;DHT22;6268;48.188;17.134;2022-11-13T04:39:42;8.00;99.90
12408;DHT22;6268;48.188;17.134;2022-11-13T04:42:12;8.00;99.90
12408;DHT22;6268;48.188;17.134;2022-11-13T04:44:58;8.10;99.90
12408;DHT22;6268;48.188;17.134;2022-11-13T04:47:27;8.00;99.90
12408;DHT22;6268;48.188;17.134;2022-11-13T04:49:56;8.00;99.90
12408;DHT22;6268;48.188;17.134;2022-11-13T04:52:24;8.00;99.90
12408;DHT22;6268;48.188;17.134;2022-11-13T04:54:54;8.00;99.90
12408;DHT22;6268;48.188;17.134;2022-11-13T04:57:24;8.00;99.90
12408;DHT22;6268;48.188;17.134;2022-11-13T04:59:53;8.00;99.90
12408;DHT22;6268;48.188;17.134;2022-11-13T05:02:22;8.00;99.90
12408;DHT22;6268;48.188;17.134;2022-11-13T05:04:51;8.00;99.90
12408;DHT22;6268;48.188;17.134;2022-11-13T05:07:19;8.00;99.90
12408;DHT22;6268;48.188;17.134;2022-11-13T05:09:48;7.90;99.90
12408;DHT22;6268;48.188;17.134;2022-11-13T05:12:17;8.00;99.90
12408;DHT22;6268;48.188;17.134;2022-11-13T05:14:47;7.90;99.90
12408;DHT22;6268;48.188;17.134;2022-11-13T05:17:15;8.00;99.90
12408;DHT22;6268;48.188;17.134;2022-11-13T05:19:44;8.00;99.90
12408;DHT22;6268;48.188;17.134;2022-11-13T05:22:13;8.00;99.90
12408;DHT22;6268;48.188;17.134;2022-11-13T05:24:41;7.90;99.90
12408;DHT22;6268;48.188;17.134;2022-11-13T05:27:10;7.90;99.90
12408;DHT22;6268;48.188;17.134;2022-11-13T05:29:43;7.80;99.90
12408;DHT22;6268;48.188;17.134;2022-11-13T05:32:13;7.80;99.90
12408;DHT22;6268;48.188;17.134;2022-11-13T05:34:42;7.80;99.90
12408;DHT22;6268;48.188;17.134;2022-11-13T05:37:11;7.70;99.90
12408;DHT22;6268;48.188;17.134;2022-11-13T05:39:39;7.70;99.90
12408;DHT22;6268;48.188;17.134;2022-11-13T05:42:08;7.80;99.90
12408;DHT22;6268;48.188;17.134;2022-11-13T05:44:36;7.90;99.90
12408;DHT22;6268;48.188;17.134;2022-11-13T05:47:05;7.80;99.90
12408;DHT22;6268;48.188;17.134;2022-11-13T05:49:35;7.80;99.90
12408;DHT22;6268;48.188;17.134;2022-11-13T05:52:04;7.80;99.90
12408;DHT22;6268;48.188;17.134;2022-11-13T05:54:32;7.80;99.90
12408;DHT22;6268;48.188;17.134;2022-11-13T05:57:01;7.80;99.90
12408;DHT22;6268;48.188;17.134;2022-11-13T05:59:29;7.70;99.90
12408;DHT22;6268;48.188;17.134;2022-11-13T06:01:58;7.70;99.90
12408;DHT22;6268;48.188;17.134;2022-11-13T06:04:27;7.70;99.90
12408;DHT22;6268;48.188;17.134;2022-11-13T06:06:57;7.60;99.90
12408;DHT22;6268;48.188;17.134;2022-11-13T06:09:26;7.50;99.90
12408;DHT22;6268;48.188;17.134;2022-11-13T06:11:54;7.60;99.90
12408;DHT22;6268;48.188;17.134;2022-11-13T06:14:23;7.70;99.90
12408;DHT22;6268;48.188;17.134;2022-11-13T06:16:52;7.80;99.90
12408;DHT22;6268;48.188;17.134;2022-11-13T06:19:20;7.70;99.90
12408;DHT22;6268;48.188;17.134;2022-11-13T06:21:49;7.70;99.90
12408;DHT22;6268;48.188;17.134;2022-11-13T06:24:19;7.80;99.90
12408;DHT22;6268;48.188;17.134;2022-11-13T06:26:48;7.80;99.90
12408;DHT22;6268;48.188;17.134;2022-11-13T06:29:16;7.60;99.90
12408;DHT22;6268;48.188;17.134;2022-11-13T06:31:45;7.50;99.90
12408;DHT22;6268;48.188;17.134;2022-11-13T06:34:13;7.50;99.90
12408;DHT22;6268;48.188;17.134;2022-11-13T06:36:42;7.40;99.90
12408;DHT22;6268;48.188;17.134;2022-11-13T06:39:11;7.20;99.90
12408;DHT22;6268;48.188;17.134;2022-11-13T06:41:41;7.20;99.90
12408;DHT22;6268;48.188;17.134;2022-11-13T06:44:10;7.10;99.90
12408;DHT22;6268;48.188;17.134;2022-11-13T06:46:38;7.10;99.90
12408;DHT22;6268;48.188;17.134;2022-11-13T06:49:07;7.20;99.90
12408;DHT22;6268;48.188;17.134;2022-11-13T06:51:36;7.10;99.90
12408;DHT22;6268;48.188;17.134;2022-11-13T06:54:05;7.30;99.90
12408;DHT22;6268;48.188;17.134;2022-11-13T06:56:34;7.20;99.90
12408;DHT22;6268;48.188;17.134;2022-11-13T06:59:04;7.30;99.90
12408;DHT22;6268;48.188;17.134;2022-11-13T07:01:34;7.30;99.90
12408;DHT22;6268;48.188;17.134;2022-11-13T07:04:03;7.40;99.90
12408;DHT22;6268;48.188;17.134;2022-11-13T07:06:32;7.30;99.90
12408;DHT22;6268;48.188;17.134;2022-11-13T07:09:06;7.30;99.90
12408;DHT22;6268;48.188;17.134;2022-11-13T07:11:35;7.20;99.90
12408;DHT22;6268;48.188;17.134;2022-11-13T07:14:06;7.20;99.90
12408;DHT22;6268;48.188;17.134;2022-11-13T07:16:36;7.20;99.90
12408;DHT22;6268;48.188;17.134;2022-11-13T07:19:25;7.20;99.90
12408;DHT22;6268;48.188;17.134;2022-11-13T07:21:54;7.20;99.90
12408;DHT22;6268;48.188;17.134;2022-11-13T07:24:22;7.30;99.90
12408;DHT22;6268;48.188;17.134;2022-11-13T07:26:51;7.30;99.90
12408;DHT22;6268;48.188;17.134;2022-11-13T07:29:21;7.40;99.90
12408;DHT22;6268;48.188;17.134;2022-11-13T07:31:50;7.30;99.90
12408;DHT22;6268;48.188;17.134;2022-11-13T07:34:19;7.40;99.90
12408;DHT22;6268;48.188;17.134;2022-11-13T07:36:48;7.50;99.90
12408;DHT22;6268;48.188;17.134;2022-11-13T07:39:16;7.40;99.90
12408;DHT22;6268;48.188;17.134;2022-11-13T07:41:46;7.50;99.90
12408;DHT22;6268;48.188;17.134;2022-11-13T07:44:15;7.40;99.90
12408;DHT22;6268;48.188;17.134;2022-11-13T07:47:05;7.30;99.90
12408;DHT22;6268;48.188;17.134;2022-11-13T07:49:33;7.30;99.90
12408;DHT22;6268;48.188;17.134;2022-11-13T07:52:02;7.40;99.90
12408;DHT22;6268;48.188;17.134;2022-11-13T07:54:31;7.40;99.90
12408;DHT22;6268;48.188;17.134;2022-11-13T07:56:59;7.50;99.90
12408;DHT22;6268;48.188;17.134;2022-11-13T07:59:28;7.50;99.90
12408;DHT22;6268;48.188;17.134;2022-11-13T08:01:57;7.50;99.90
12408;DHT22;6268;48.188;17.134;2022-11-13T08:04:28;7.60;99.90
12408;DHT22;6268;48.188;17.134;2022-11-13T08:06:58;7.80;99.90
12408;DHT22;6268;48.188;17.134;2022-11-13T08:09:26;7.90;99.90
12408;DHT22;6268;48.188;17.134;2022-11-13T08:11:55;7.90;99.90
12408;DHT22;6268;48.188;17.134;2022-11-13T08:14:23;7.90;99.90
12408;DHT22;6268;48.188;17.134;2022-11-13T08:16:52;8.00;99.90
12408;DHT22;6268;48.188;17.134;2022-11-13T08:19:21;7.80;99.90
12408;DHT22;6268;48.188;17.134;2022-11-13T08:21:51;7.70;99.90
12408;DHT22;6268;48.188;17.134;2022-11-13T08:24:19;7.70;99.90
12408;DHT22;6268;48.188;17.134;2022-11-13T08:26:48;7.60;99.90
12408;DHT22;6268;48.188;17.134;2022-11-13T08:29:17;7.70;99.90
12408;DHT22;6268;48.188;17.134;2022-11-13T08:31:45;7.70;99.90
12408;DHT22;6268;48.188;17.134;2022-11-13T08:34:14;7.70;99.90
12408;DHT22;6268;48.188;17.134;2022-11-13T08:36:42;7.70;99.90
12408;DHT22;6268;48.188;17.134;2022-11-13T08:39:12;7.60;99.90
12408;DHT22;6268;48.188;17.134;2022-11-13T08:41:41;7.60;99.90
12408;DHT22;6268;48.188;17.134;2022-11-13T08:44:10;7.60;99.90
12408;DHT22;6268;48.188;17.134;2022-11-13T08:46:40;7.70;99.90
12408;DHT22;6268;48.188;17.134;2022-11-13T08:49:09;7.70;99.90
12408;DHT22;6268;48.188;17.134;2022-11-13T08:51:38;7.80;99.90
12408;DHT22;6268;48.188;17.134;2022-11-13T08:54:07;7.90;99.90
12408;DHT22;6268;48.188;17.134;2022-11-13T08:56:39;7.90;99.90
12408;DHT22;6268;48.188;17.134;2022-11-13T08:59:08;7.90;99.90
12408;DHT22;6268;48.188;17.134;2022-11-13T09:01:39;7.90;99.90
12408;DHT22;6268;48.188;17.134;2022-11-13T09:04:08;7.90;99.90
12408;DHT22;6268;48.188;17.134;2022-11-13T09:06:36;8.00;99.90
12408;DHT22;6268;48.188;17.134;2022-11-13T09:09:06;8.10;99.90
12408;DHT22;6268;48.188;17.134;2022-11-13T09:11:34;8.30;99.90
12408;DHT22;6268;48.188;17.134;2022-11-13T09:14:05;8.30;99.90
12408;DHT22;6268;48.188;17.134;2022-11-13T09:16:33;8.30;99.90
12408;DHT22;6268;48.188;17.134;2022-11-13T09:19:03;8.30;99.90
12408;DHT22;6268;48.188;17.134;2022-11-13T09:21:32;8.40;99.90
12408;DHT22;6268;48.188;17.134;2022-11-13T09:24:01;8.30;99.90
12408;DHT22;6268;48.188;17.134;2022-11-13T09:26:30;8.10;99.90
12408;DHT22;6268;48.188;17.134;2022-11-13T09:29:00;7.90;99.90
12408;DHT22;6268;48.188;17.134;2022-11-13T09:31:28;8.00;99.90
12408;DHT22;6268;48.188;17.134;2022-11-13T09:33:57;8.20;99.90
12408;DHT22;6268;48.188;17.134;2022-11-13T09:36:25;8.20;99.90
12408;DHT22;6268;48.188;17.134;2022-11-13T09:38:54;8.20;99.90
12408;DHT22;6268;48.188;17.134;2022-11-13T09:41:26;8.00;99.90
12408;DHT22;6268;48.188;17.134;2022-11-13T09:44:02;7.90;99.90
12408;DHT22;6268;48.188;17.134;2022-11-13T09:46:37;8.00;99.90
12408;DHT22;6268;48.188;17.134;2022-11-13T09:49:14;8.10;99.90
12408;DHT22;6268;48.188;17.134;2022-11-13T09:51:49;8.30;99.90
12408;DHT22;6268;48.188;17.134;2022-11-13T09:54:19;8.20;99.90
12408;DHT22;6268;48.188;17.134;2022-11-13T09:56:55;8.20;99.90
12408;DHT22;6268;48.188;17.134;2022-11-13T09:59:33;8.10;99.90
12408;DHT22;6268;48.188;17.134;2022-11-13T10:02:16;8.30;99.90
12408;DHT22;6268;48.188;17.134;2022-11-13T10:04:55;8.30;99.90
12408;DHT22;6268;48.188;17.134;2022-11-13T10:07:40;8.20;99.90
12408;DHT22;6268;48.188;17.134;2022-11-13T10:10:45;8.20;99.90
12408;DHT22;6268;48.188;17.134;2022-11-13T10:13:24;8.40;99.90
12408;DHT22;6268;48.188;17.134;2022-11-13T10:16:02;8.60;99.90
12408;DHT22;6268;48.188;17.134;2022-11-13T10:18:35;8.40;99.90
12408;DHT22;6268;48.188;17.134;2022-11-13T10:21:11;8.50;99.90
12408;DHT22;6268;48.188;17.134;2022-11-13T10:23:54;8.60;99.90
12408;DHT22;6268;48.188;17.134;2022-11-13T10:26:26;8.50;99.90
12408;DHT22;6268;48.188;17.134;2022-11-13T10:29:00;8.40;99.90
12408;DHT22;6268;48.188;17.134;2022-11-13T10:31:42;8.30;99.90
12408;DHT22;6268;48.188;17.134;2022-11-13T10:34:13;8.40;99.90
12408;DHT22;6268;48.188;17.134;2022-11-13T10:36:53;8.50;99.90
12408;DHT22;6268;48.188;17.134;2022-11-13T10:39:40;8.50;99.90
12408;DHT22;6268;48.188;17.134;2022-11-13T10:42:20;8.60;99.90
12408;DHT22;6268;48.188;17.134;2022-11-13T10:44:55;8.70;99.90
12408;DHT22;6268;48.188;17.134;2022-11-13T10:47:29;8.80;99.90
12408;DHT22;6268;48.188;17.134;2022-11-13T10:50:21;9.00;99.90
12408;DHT22;6268;48.188;17.134;2022-11-13T10:52:53;9.00;99.90
12408;DHT22;6268;48.188;17.134;2022-11-13T10:55:31;9.00;99.90
12408;DHT22;6268;48.188;17.134;2022-11-13T10:58:12;9.10;99.90
12408;DHT22;6268;48.188;17.134;2022-11-13T11:00:43;9.10;99.90
12408;DHT22;6268;48.188;17.134;2022-11-13T11:03:19;9.10;99.90
12408;DHT22;6268;48.188;17.134;2022-11-13T11:05:54;9.10;99.90
12408;DHT22;6268;48.188;17.134;2022-11-13T11:08:28;9.10;99.90
12408;DHT22;6268;48.188;17.134;2022-11-13T11:11:00;9.00;99.90
12408;DHT22;6268;48.188;17.134;2022-11-13T11:13:47;9.00;99.90
12408;DHT22;6268;48.188;17.134;2022-11-13T11:16:20;8.90;99.90
12408;DHT22;6268;48.188;17.134;2022-11-13T11:18:56;8.80;99.90
12408;DHT22;6268;48.188;17.134;2022-11-13T11:21:31;8.80;99.90
12408;DHT22;6268;48.188;17.134;2022-11-13T11:24:06;8.80;99.90
12408;DHT22;6268;48.188;17.134;2022-11-13T11:26:42;9.00;99.90
12408;DHT22;6268;48.188;17.134;2022-11-13T11:29:20;9.20;99.90
12408;DHT22;6268;48.188;17.134;2022-11-13T11:31:59;9.20;99.90
12408;DHT22;6268;48.188;17.134;2022-11-13T11:34:39;9.40;99.90
12408;DHT22;6268;48.188;17.134;2022-11-13T11:37:13;9.40;99.90
12408;DHT22;6268;48.188;17.134;2022-11-13T11:39:47;9.30;99.90
12408;DHT22;6268;48.188;17.134;2022-11-13T11:42:24;9.40;99.90
12408;DHT22;6268;48.188;17.134;2022-11-13T11:45:04;9.20;99.90
12408;DHT22;6268;48.188;17.134;2022-11-13T11:47:41;9.40;99.90
12408;DHT22;6268;48.188;17.134;2022-11-13T11:50:14;9.60;99.90
12408;DHT22;6268;48.188;17.134;2022-11-13T11:52:55;9.50;99.90
12408;DHT22;6268;48.188;17.134;2022-11-13T11:55:49;9.50;99.90
12408;DHT22;6268;48.188;17.134;2022-11-13T12:05:20;9.20;99.90
12408;DHT22;6268;48.188;17.134;2022-11-13T12:08:02;9.10;99.90
12408;DHT22;6268;48.188;17.134;2022-11-13T12:10:44;9.10;99.90
12408;DHT22;6268;48.188;17.134;2022-11-13T12:13:36;9.10;99.90
12408;DHT22;6268;48.188;17.134;2022-11-13T12:16:18;9.10;99.90
12408;DHT22;6268;48.188;17.134;2022-11-13T12:18:56;9.10;99.90
12408;DHT22;6268;48.188;17.134;2022-11-13T12:21:40;9.00;99.90
12408;DHT22;6268;48.188;17.134;2022-11-13T12:24:45;9.00;99.90
12408;DHT22;6268;48.188;17.134;2022-11-13T12:27:26;8.80;99.90
12408;DHT22;6268;48.188;17.134;2022-11-13T12:30:07;8.70;99.90
12408;DHT22;6268;48.188;17.134;2022-11-13T12:32:54;8.70;99.90
12408;DHT22;6268;48.188;17.134;2022-11-13T12:35:44;8.70;99.90
12408;DHT22;6268;48.188;17.134;2022-11-13T12:38:24;8.80;99.90
12408;DHT22;6268;48.188;17.134;2022-11-13T12:41:12;9.00;99.90
12408;DHT22;6268;48.188;17.134;2022-11-13T12:46:51;9.40;99.90
12408;DHT22;6268;48.188;17.134;2022-11-13T12:49:28;9.40;99.90
12408;DHT22;6268;48.188;17.134;2022-11-13T12:52:01;9.50;99.90
12408;DHT22;6268;48.188;17.134;2022-11-13T12:54:34;9.60;99.90
12408;DHT22;6268;48.188;17.134;2022-11-13T12:57:21;9.70;99.90
12408;DHT22;6268;48.188;17.134;2022-11-13T12:59:57;9.80;99.90
12408;DHT22;6268;48.188;17.134;2022-11-13T13:02:54;9.80;99.90
12408;DHT22;6268;48.188;17.134;2022-11-13T13:05:45;9.50;99.90
12408;DHT22;6268;48.188;17.134;2022-11-13T13:08:56;9.40;99.90
12408;DHT22;6268;48.188;17.134;2022-11-13T13:11:42;9.40;99.90
12408;DHT22;6268;48.188;17.134;2022-11-13T13:14:55;9.20;99.90
12408;DHT22;6268;48.188;17.134;2022-11-13T13:17:36;9.10;99.90
12408;DHT22;6268;48.188;17.134;2022-11-13T13:22:59;9.10;99.90
12408;DHT22;6268;48.188;17.134;2022-11-13T13:25:35;9.10;99.90
12408;DHT22;6268;48.188;17.134;2022-11-13T13:28:16;9.00;99.90
12408;DHT22;6268;48.188;17.134;2022-11-13T13:30:56;9.10;99.90
12408;DHT22;6268;48.188;17.134;2022-11-13T13:33:51;9.20;99.90
12408;DHT22;6268;48.188;17.134;2022-11-13T13:36:34;9.30;99.90
12408;DHT22;6268;48.188;17.134;2022-11-13T13:39:17;9.40;99.90
12408;DHT22;6268;48.188;17.134;2022-11-13T13:42:03;9.40;99.90
12408;DHT22;6268;48.188;17.134;2022-11-13T13:45:01;9.40;99.90
12408;DHT22;6268;48.188;17.134;2022-11-13T13:47:44;9.40;99.90
12408;DHT22;6268;48.188;17.134;2022-11-13T13:50:18;9.30;99.90
12408;DHT22;6268;48.188;17.134;2022-11-13T13:52:48;9.30;99.90
12408;DHT22;6268;48.188;17.134;2022-11-13T13:55:25;9.40;99.90
12408;DHT22;6268;48.188;17.134;2022-11-13T13:57:58;9.50;99.90
12408;DHT22;6268;48.188;17.134;2022-11-13T14:00:33;9.60;99.90
12408;DHT22;6268;48.188;17.134;2022-11-13T14:03:21;9.50;99.90
12408;DHT22;6268;48.188;17.134;2022-11-13T14:05:52;9.50;99.90
12408;DHT22;6268;48.188;17.134;2022-11-13T14:08:28;9.50;99.90
12408;DHT22;6268;48.188;17.134;2022-11-13T14:10:57;9.40;99.90
12408;DHT22;6268;48.188;17.134;2022-11-13T14:13:29;9.40;99.90
12408;DHT22;6268;48.188;17.134;2022-11-13T14:16:01;9.40;99.90
12408;DHT22;6268;48.188;17.134;2022-11-13T14:18:32;9.40;99.90
12408;DHT22;6268;48.188;17.134;2022-11-13T14:21:07;9.40;99.90
12408;DHT22;6268;48.188;17.134;2022-11-13T14:23:44;9.30;99.90
12408;DHT22;6268;48.188;17.134;2022-11-13T14:26:15;9.20;99.90
12408;DHT22;6268;48.188;17.134;2022-11-13T14:28:51;9.20;99.90
12408;DHT22;6268;48.188;17.134;2022-11-13T14:31:28;9.20;99.90
12408;DHT22;6268;48.188;17.134;2022-11-13T14:34:06;9.20;99.90
12408;DHT22;6268;48.188;17.134;2022-11-13T14:36:37;9.20;99.90
12408;DHT22;6268;48.188;17.134;2022-11-13T14:39:16;9.20;99.90
12408;DHT22;6268;48.188;17.134;2022-11-13T14:41:51;9.30;99.90
12408;DHT22;6268;48.188;17.134;2022-11-13T14:44:27;9.20;99.90
12408;DHT22;6268;48.188;17.134;2022-11-13T14:47:02;9.10;99.90
12408;DHT22;6268;48.188;17.134;2022-11-13T14:49:34;9.00;99.90
12408;DHT22;6268;48.188;17.134;2022-11-13T14:52:04;9.00;99.90
12408;DHT22;6268;48.188;17.134;2022-11-13T14:54:34;9.10;99.90
12408;DHT22;6268;48.188;17.134;2022-11-13T14:57:24;9.00;99.90
12408;DHT22;6268;48.188;17.134;2022-11-13T14:59:52;9.00;99.90
12408;DHT22;6268;48.188;17.134;2022-11-13T15:02:22;9.10;99.90
12408;DHT22;6268;48.188;17.134;2022-11-13T15:04:51;9.00;99.90
12408;DHT22;6268;48.188;17.134;2022-11-13T15:07:27;9.00;99.90
12408;DHT22;6268;48.188;17.134;2022-11-13T15:09:58;9.00;99.90
12408;DHT22;6268;48.188;17.134;2022-11-13T15:12:27;9.00;99.90
12408;DHT22;6268;48.188;17.134;2022-11-13T15:14:55;8.90;99.90
12408;DHT22;6268;48.188;17.134;2022-11-13T15:17:25;8.80;99.90
12408;DHT22;6268;48.188;17.134;2022-11-13T15:19:54;8.80;99.90
12408;DHT22;6268;48.188;17.134;2022-11-13T15:22:23;8.70;99.90
12408;DHT22;6268;48.188;17.134;2022-11-13T15:24:54;8.60;99.90
12408;DHT22;6268;48.188;17.134;2022-11-13T15:27:22;8.50;99.90
12408;DHT22;6268;48.188;17.134;2022-11-13T15:29:51;8.50;99.90
12408;DHT22;6268;48.188;17.134;2022-11-13T15:32:20;8.50;99.90
12408;DHT22;6268;48.188;17.134;2022-11-13T15:34:50;8.50;99.90
12408;DHT22;6268;48.188;17.134;2022-11-13T15:37:19;8.50;99.90
12408;DHT22;6268;48.188;17.134;2022-11-13T15:39:47;8.50;99.90
12408;DHT22;6268;48.188;17.134;2022-11-13T15:42:17;8.30;99.90
12408;DHT22;6268;48.188;17.134;2022-11-13T15:44:53;8.30;99.90
12408;DHT22;6268;48.188;17.134;2022-11-13T15:47:27;8.20;99.90
12408;DHT22;6268;48.188;17.134;2022-11-13T15:49:59;8.20;99.90
12408;DHT22;6268;48.188;17.134;2022-11-13T15:52:42;8.10;99.90
12408;DHT22;6268;48.188;17.134;2022-11-13T15:55:23;8.00;99.90
12408;DHT22;6268;48.188;17.134;2022-11-13T15:57:54;8.00;99.90
12408;DHT22;6268;48.188;17.134;2022-11-13T16:00:26;8.00;99.90
12408;DHT22;6268;48.188;17.134;2022-11-13T16:02:56;8.00;99.90
12408;DHT22;6268;48.188;17.134;2022-11-13T16:05:27;8.00;99.90
12408;DHT22;6268;48.188;17.134;2022-11-13T16:07:56;8.00;99.90
12408;DHT22;6268;48.188;17.134;2022-11-13T16:10:24;8.00;99.90
12408;DHT22;6268;48.188;17.134;2022-11-13T16:12:53;8.00;99.90
12408;DHT22;6268;48.188;17.134;2022-11-13T16:15:22;8.00;99.90
12408;DHT22;6268;48.188;17.134;2022-11-13T16:17:53;8.00;99.90
12408;DHT22;6268;48.188;17.134;2022-11-13T16:20:24;8.00;99.90
12408;DHT22;6268;48.188;17.134;2022-11-13T16:22:54;7.90;99.90
12408;DHT22;6268;48.188;17.134;2022-11-13T16:25:22;7.90;99.90
12408;DHT22;6268;48.188;17.134;2022-11-13T16:27:51;7.90;99.90
12408;DHT22;6268;48.188;17.134;2022-11-13T16:30:21;7.90;99.90
12408;DHT22;6268;48.188;17.134;2022-11-13T16:32:51;7.80;99.90